createdAt,value
2023-02-12T00:10:04.814Z,63.40
2023-02-12T00:13:06.765Z,66.50
2023-02-12T00:16:10.550Z,66.20
2023-02-12T00:19:12.095Z,64.20
2023-02-12T00:22:13.661Z,60.10
2023-02-12T00:25:15.605Z,62.30
2023-02-12T00:28:17.361Z,62.30
2023-02-12T00:34:22.113Z,61.90
2023-02-12T00:40:25.912Z,60.10
2023-02-12T00:43:27.616Z,59.00
2023-02-12T00:46:29.535Z,60.40
2023-02-12T00:49:32.337Z,63.00
2023-02-12T00:52:33.844Z,62.00
2023-02-12T00:55:35.843Z,64.30
2023-02-12T00:58:37.680Z,61.20
2023-02-12T01:04:40.934Z,61.00
2023-02-12T01:07:43.061Z,62.10
2023-02-12T01:10:45.226Z,59.00
2023-02-12T01:13:47.189Z,59.50
2023-02-12T01:16:48.815Z,60.40
2023-02-12T01:19:50.488Z,56.50
2023-02-12T01:25:54.336Z,57.10
2023-02-12T01:28:59.644Z,57.20
2023-02-12T01:32:01.331Z,54.80
2023-02-12T01:38:04.565Z,55.00
2023-02-12T01:41:08.699Z,53.20
2023-02-12T01:44:19.143Z,54.40
2023-02-12T01:47:20.774Z,52.90
2023-02-12T01:50:22.514Z,53.00
2023-02-12T01:53:26.118Z,55.10
2023-02-12T01:56:27.692Z,51.60
2023-02-12T01:59:30.189Z,51.50
2023-02-12T02:02:32.433Z,52.80
2023-02-12T02:05:47.529Z,52.80
2023-02-12T02:08:49.293Z,51.50
2023-02-12T02:14:55.783Z,53.20
2023-02-12T02:18:02.887Z,54.00
2023-02-12T02:21:13.625Z,54.30
2023-02-12T02:24:24.110Z,50.40
2023-02-12T02:28:03.672Z,51.10
2023-02-12T02:31:21.604Z,51.80
2023-02-12T02:34:40.641Z,51.70
2023-02-12T02:37:53.999Z,52.10
2023-02-12T02:41:29.281Z,51.00
2023-02-12T02:44:54.786Z,52.00
2023-02-12T02:48:45.939Z,50.20
2023-02-12T02:51:50.783Z,50.50
2023-02-12T02:54:56.341Z,52.60
2023-02-12T02:58:01.608Z,51.80
2023-02-12T03:01:11.099Z,50.40
2023-02-12T03:04:21.311Z,50.60
2023-02-12T03:07:28.584Z,51.90
2023-02-12T03:10:35.333Z,50.40
2023-02-12T03:13:41.874Z,47.80
2023-02-12T03:17:03.934Z,48.30
2023-02-12T03:20:09.525Z,45.40
2023-02-12T03:23:19.327Z,45.20
2023-02-12T03:26:24.240Z,45.20
2023-02-12T03:29:26.550Z,46.40
2023-02-12T03:32:30.102Z,44.40
2023-02-12T03:35:51.249Z,41.30
2023-02-12T03:38:54.906Z,40.60
2023-02-12T03:42:09.167Z,37.60
2023-02-12T03:45:23.001Z,37.70
2023-02-12T03:48:39.127Z,37.30
2023-02-12T03:51:42.328Z,36.20
2023-02-12T03:54:43.938Z,38.20
2023-02-12T03:57:50.661Z,37.30
2023-02-12T04:00:52.285Z,33.50
2023-02-12T04:03:53.928Z,34.50
2023-02-12T04:06:55.886Z,34.20
2023-02-12T04:09:57.449Z,33.60
2023-02-12T04:13:12.227Z,32.90
2023-02-12T04:16:40.199Z,30.70
2023-02-12T04:19:48.206Z,30.40
2023-02-12T04:22:49.778Z,29.60
2023-02-12T04:26:09.719Z,29.60
2023-02-12T04:29:18.854Z,29.50
2023-02-12T04:32:35.661Z,26.50
2023-02-12T04:36:00.244Z,26.70
2023-02-12T04:39:06.621Z,26.10
2023-02-12T04:42:08.421Z,25.90
2023-02-12T04:48:12.736Z,23.30
2023-02-12T04:51:14.254Z,24.80
2023-02-12T04:54:17.627Z,23.70
2023-02-12T04:57:19.602Z,23.40
2023-02-12T05:00:21.435Z,23.20
2023-02-12T05:03:23.048Z,22.80
2023-02-12T05:06:24.821Z,20.90
2023-02-12T05:09:26.434Z,21.20
2023-02-12T05:12:28.021Z,18.50
2023-02-12T05:15:29.819Z,17.30
2023-02-12T05:18:32.505Z,18.00
2023-02-12T05:21:34.277Z,15.90
2023-02-12T05:27:37.476Z,16.20
2023-02-12T05:33:45.121Z,15.00
2023-02-12T05:36:46.683Z,18.20
2023-02-12T05:39:49.785Z,18.20
2023-02-12T05:42:51.341Z,17.30
2023-02-12T05:45:53.350Z,15.50
2023-02-12T05:48:55.362Z,15.00
2023-02-12T05:51:57.005Z,15.50
2023-02-12T05:54:58.567Z,14.40
2023-02-12T05:58:00.246Z,14.30
2023-02-12T06:04:06.914Z,12.70
2023-02-12T06:07:08.907Z,12.40
2023-02-12T06:10:10.999Z,12.40
2023-02-12T06:13:12.545Z,12.40
2023-02-12T06:19:26.125Z,10.20
2023-02-12T06:22:28.455Z,10.40
2023-02-12T06:25:30.096Z,8.60
2023-02-12T06:28:31.948Z,8.50
2023-02-12T06:31:35.422Z,8.20
2023-02-12T06:34:37.236Z,8.30
2023-02-12T06:37:39.045Z,8.70
2023-02-12T06:40:41.008Z,8.80
2023-02-12T06:43:42.695Z,9.00
2023-02-12T06:49:46.093Z,9.50
2023-02-12T06:55:49.422Z,9.20
2023-02-12T06:58:56.553Z,8.90
2023-02-12T07:01:58.344Z,8.80
2023-02-12T07:08:01.454Z,8.50
2023-02-12T07:11:03.985Z,8.30
2023-02-12T07:14:06.781Z,8.30
2023-02-12T07:17:08.315Z,8.00
2023-02-12T07:20:10.403Z,8.40
2023-02-12T07:23:12.377Z,7.60
2023-02-12T07:26:15.058Z,7.40
2023-02-12T07:29:16.652Z,7.40
2023-02-12T07:32:18.196Z,7.30
2023-02-12T07:35:19.810Z,7.40
2023-02-12T07:38:21.568Z,8.60
2023-02-12T07:41:28.124Z,7.10
2023-02-12T07:44:29.933Z,6.60
2023-02-12T07:50:33.080Z,6.10
2023-02-12T07:56:37.462Z,5.80
2023-02-12T07:59:39.085Z,6.00
2023-02-12T08:05:42.436Z,6.90
2023-02-12T08:08:44.049Z,6.50
2023-02-12T08:11:46.418Z,7.70
2023-02-12T08:14:48.022Z,6.40
2023-02-12T08:20:51.213Z,5.90
2023-02-12T08:23:56.978Z,5.20
2023-02-12T08:26:58.941Z,4.90
2023-02-12T08:30:00.568Z,4.60
2023-02-12T08:33:02.198Z,4.40
2023-02-12T08:36:09.747Z,4.10
2023-02-12T08:39:12.096Z,4.80
2023-02-12T08:42:13.666Z,4.40
2023-02-12T08:45:15.580Z,4.30
2023-02-12T08:48:17.150Z,4.30
2023-02-12T08:51:21.896Z,4.60
2023-02-12T08:54:25.742Z,4.00
2023-02-12T08:57:27.523Z,5.10
2023-02-12T09:00:29.446Z,4.40
2023-02-12T09:03:31.467Z,4.60
2023-02-12T09:06:35.141Z,4.80
2023-02-12T09:09:36.970Z,6.30
2023-02-12T09:12:38.594Z,7.00
2023-02-12T09:18:46.784Z,5.80
2023-02-12T09:24:58.141Z,5.50
2023-02-12T09:31:11.371Z,4.40
2023-02-12T09:34:13.363Z,4.20
2023-02-12T09:37:15.412Z,5.00
2023-02-12T09:43:40.367Z,5.80
2023-02-12T09:47:07.383Z,4.80
2023-02-12T09:50:20.621Z,4.40
2023-02-12T09:53:27.029Z,4.70
2023-02-12T09:56:28.869Z,4.60
2023-02-12T09:59:39.931Z,4.80
2023-02-12T10:02:41.883Z,4.70
2023-02-12T10:06:01.633Z,5.80
2023-02-12T10:09:07.640Z,4.80
2023-02-12T10:12:22.475Z,4.30
2023-02-12T10:15:35.798Z,4.50
2023-02-12T10:18:43.359Z,4.30
2023-02-12T10:22:01.586Z,4.70
2023-02-12T10:25:16.597Z,4.60
2023-02-12T10:28:41.551Z,4.50
2023-02-12T10:31:51.118Z,4.60
2023-02-12T10:34:53.638Z,4.30
2023-02-12T10:37:56.764Z,4.40
2023-02-12T10:40:58.458Z,4.00
2023-02-12T10:44:00.059Z,4.40
2023-02-12T10:47:02.049Z,4.00
2023-02-12T10:50:34.716Z,4.40
2023-02-12T10:53:39.294Z,3.90
2023-02-12T10:56:40.942Z,4.30
2023-02-12T11:03:19.987Z,4.00
2023-02-12T11:06:24.629Z,4.70
2023-02-12T11:09:37.453Z,5.10
2023-02-12T11:12:42.815Z,5.20
2023-02-12T11:15:48.562Z,5.10
2023-02-12T11:18:58.522Z,4.40
2023-02-12T11:22:11.702Z,6.30
2023-02-12T11:25:15.946Z,7.20
2023-02-12T11:28:19.360Z,5.00
2023-02-12T11:31:24.204Z,5.30
2023-02-12T11:34:26.169Z,5.30
2023-02-12T11:37:27.906Z,5.10
2023-02-12T11:43:35.833Z,5.40
2023-02-12T11:46:37.682Z,5.40
2023-02-12T11:49:44.290Z,5.30
2023-02-12T11:52:49.588Z,5.50
2023-02-12T11:55:56.456Z,5.50
2023-02-12T11:59:11.471Z,5.50
2023-02-12T12:02:23.768Z,5.40
2023-02-12T12:05:32.313Z,5.40
2023-02-12T12:09:03.441Z,6.20
2023-02-12T12:12:29.262Z,5.90
2023-02-12T12:15:34.526Z,5.40
2023-02-12T12:18:50.143Z,6.80
2023-02-12T12:22:03.946Z,6.60
2023-02-12T12:25:26.307Z,5.20
2023-02-12T12:28:52.520Z,7.50
2023-02-12T12:31:59.119Z,6.40
2023-02-12T12:35:00.828Z,6.40
2023-02-12T12:38:08.481Z,6.00
2023-02-12T12:41:28.437Z,7.30
2023-02-12T12:45:02.527Z,6.70
2023-02-12T12:48:48.826Z,7.80
2023-02-12T12:52:23.410Z,7.40
2023-02-12T12:55:46.523Z,6.80
2023-02-12T12:59:35.446Z,7.00
2023-02-12T13:02:39.779Z,7.50
2023-02-12T13:06:07.760Z,7.10
2023-02-12T13:09:40.359Z,7.90
2023-02-12T13:13:04.971Z,6.90
2023-02-12T13:16:12.119Z,9.20
2023-02-12T13:19:28.201Z,7.10
2023-02-12T13:22:43.577Z,7.70
2023-02-12T13:25:54.287Z,7.80
2023-02-12T13:29:08.380Z,8.20
2023-02-12T13:32:17.099Z,8.50
2023-02-12T13:35:21.117Z,8.40
2023-02-12T13:38:26.748Z,10.40
2023-02-12T13:41:29.072Z,8.00
2023-02-12T13:44:56.451Z,8.40
2023-02-12T13:48:36.320Z,8.90
2023-02-12T13:51:44.596Z,9.00
2023-02-12T13:54:54.955Z,8.80
2023-02-12T13:58:31.459Z,12.70
2023-02-12T14:01:47.067Z,9.20
2023-02-12T14:04:58.369Z,8.50
2023-02-12T14:08:02.868Z,9.70
2023-02-12T14:11:07.867Z,8.40
2023-02-12T14:14:09.565Z,8.80
2023-02-12T14:17:29.818Z,8.70
2023-02-12T14:20:36.634Z,9.40
2023-02-12T14:23:43.030Z,8.90
2023-02-12T14:26:44.834Z,9.00
2023-02-12T14:30:11.511Z,10.50
2023-02-12T14:33:24.797Z,10.00
2023-02-12T14:36:32.488Z,10.50
2023-02-12T14:39:34.033Z,10.70
2023-02-12T14:42:35.508Z,10.80
2023-02-12T14:45:37.720Z,11.70
2023-02-12T14:48:53.002Z,10.80
2023-02-12T14:52:00.958Z,11.10
2023-02-12T14:55:07.573Z,11.10
2023-02-12T14:58:18.089Z,10.90
2023-02-12T15:01:29.089Z,12.30
2023-02-12T15:04:33.550Z,12.40
2023-02-12T15:07:44.793Z,11.80
2023-02-12T15:10:49.904Z,11.90
2023-02-12T15:14:15.664Z,11.70
2023-02-12T15:17:40.258Z,16.00
2023-02-12T15:20:56.394Z,14.30
2023-02-12T15:24:09.010Z,17.90
2023-02-12T15:27:13.766Z,23.50
2023-02-12T15:30:26.349Z,21.80
2023-02-12T15:33:30.621Z,25.00
2023-02-12T15:36:33.543Z,28.00
2023-02-12T15:39:44.963Z,25.80
2023-02-12T15:42:52.015Z,23.90
2023-02-12T15:45:54.172Z,19.00
2023-02-12T15:48:56.057Z,18.50
2023-02-12T15:51:58.960Z,16.50
2023-02-12T15:55:01.163Z,16.90
2023-02-12T15:58:02.708Z,16.60
2023-02-12T16:01:06.590Z,17.30
2023-02-12T16:04:08.524Z,17.80
2023-02-12T16:07:12.041Z,18.00
2023-02-12T16:10:18.783Z,16.80
2023-02-12T16:13:32.542Z,14.80
2023-02-12T16:16:46.247Z,16.80
2023-02-12T16:19:58.590Z,20.60
2023-02-12T16:23:05.823Z,20.00
2023-02-12T16:26:07.324Z,19.70
2023-02-12T16:29:16.633Z,20.80
2023-02-12T16:32:35.717Z,19.20
2023-02-12T16:35:37.226Z,21.30
2023-02-12T16:38:53.316Z,21.10
2023-02-12T16:41:56.704Z,24.80
2023-02-12T16:44:58.691Z,24.20
2023-02-12T16:48:06.653Z,25.10
2023-02-12T16:51:21.120Z,23.60
2023-02-12T16:54:34.397Z,26.50
2023-02-12T16:57:36.061Z,26.70
2023-02-12T17:00:37.730Z,25.10
2023-02-12T17:03:39.714Z,26.90
2023-02-12T17:06:41.309Z,26.30
2023-02-12T17:09:42.864Z,24.30
2023-02-12T17:12:46.971Z,25.90
2023-02-12T17:15:55.964Z,25.30
2023-02-12T17:18:58.208Z,25.00
2023-02-12T17:21:59.948Z,26.20
2023-02-12T17:28:03.315Z,53.50
2023-02-12T17:31:05.107Z,33.60
2023-02-12T17:37:08.244Z,28.60
2023-02-12T17:40:10.324Z,29.70
2023-02-12T17:43:12.032Z,32.30
2023-02-12T17:46:22.221Z,35.50
2023-02-12T17:49:23.916Z,38.60
2023-02-12T17:52:25.520Z,38.80
2023-02-12T17:55:27.141Z,54.30
2023-02-12T17:58:28.767Z,40.80
2023-02-12T18:01:30.457Z,42.50
2023-02-12T18:04:32.272Z,56.00
2023-02-12T18:07:35.278Z,67.20
2023-02-12T18:10:41.227Z,62.70
2023-02-12T18:13:43.209Z,57.80
2023-02-12T18:16:44.986Z,60.50
2023-02-12T18:19:46.589Z,54.80
2023-02-12T18:22:48.109Z,48.90
2023-02-12T18:25:49.937Z,51.80
2023-02-12T18:31:55.138Z,43.30
2023-02-12T18:34:56.778Z,51.10
2023-02-12T18:37:58.820Z,57.30
2023-02-12T18:41:05.984Z,66.40
2023-02-12T18:44:07.558Z,62.20
2023-02-12T18:47:09.134Z,54.00
2023-02-12T18:50:11.212Z,55.60
2023-02-12T18:53:12.729Z,54.70
2023-02-12T18:56:14.585Z,51.30
2023-02-12T18:59:16.132Z,51.50
2023-02-12T19:02:17.847Z,42.40
2023-02-12T19:05:19.620Z,38.00
2023-02-12T19:08:21.478Z,34.10
2023-02-12T19:11:23.310Z,35.30
2023-02-12T19:14:26.735Z,38.00
2023-02-12T19:17:28.581Z,37.50
2023-02-12T19:20:31.357Z,48.10
2023-02-12T19:23:33.232Z,48.80
2023-02-12T19:32:38.443Z,42.70
2023-02-12T19:35:40.235Z,42.40
2023-02-12T19:38:42.105Z,41.30
2023-02-12T19:41:43.736Z,44.40
2023-02-12T19:44:45.719Z,41.00
2023-02-12T19:50:48.829Z,40.00
2023-02-12T19:53:51.411Z,43.40
2023-02-12T19:56:53.827Z,43.70
2023-02-12T19:59:55.402Z,45.20
2023-02-12T20:02:57.009Z,65.40
2023-02-12T20:09:05.416Z,41.50
2023-02-12T20:12:07.189Z,37.80
2023-02-12T20:15:09.099Z,36.70
2023-02-12T20:21:14.818Z,36.80
2023-02-12T20:24:16.672Z,34.60
2023-02-12T20:30:20.492Z,38.00
2023-02-12T20:33:22.273Z,36.90
2023-02-12T20:36:24.938Z,38.60
2023-02-12T20:39:26.489Z,49.70
2023-02-12T20:42:28.119Z,55.30
2023-02-12T20:45:29.724Z,49.10
2023-02-12T20:48:31.392Z,49.60
2023-02-12T20:51:33.465Z,50.10
2023-02-12T20:54:35.186Z,45.30
2023-02-12T20:57:36.753Z,43.50
2023-02-12T21:00:38.275Z,42.60
2023-02-12T21:03:40.435Z,54.50
2023-02-12T21:06:42.806Z,60.20
2023-02-12T21:09:44.523Z,65.30
2023-02-12T21:15:47.639Z,58.30
2023-02-12T21:18:49.847Z,64.20
2023-02-12T21:21:51.687Z,64.80
2023-02-12T21:27:55.007Z,62.50
2023-02-12T21:33:59.867Z,66.60
2023-02-12T21:37:01.707Z,62.40
2023-02-12T21:40:03.608Z,68.10
2023-02-12T21:43:05.405Z,64.00
2023-02-12T21:49:09.494Z,64.50
2023-02-12T21:52:11.127Z,62.40
2023-02-12T21:55:12.923Z,63.30
2023-02-12T22:01:19.168Z,55.60
2023-02-12T22:04:21.064Z,56.80
2023-02-12T22:07:22.795Z,59.30
2023-02-12T22:10:24.386Z,60.80
2023-02-12T22:13:25.926Z,62.50
2023-02-12T22:16:28.795Z,55.00
2023-02-12T22:19:30.425Z,60.80
2023-02-12T22:22:32.004Z,56.90
2023-02-12T22:25:33.868Z,58.80
2023-02-12T22:31:42.640Z,55.00
2023-02-12T22:34:44.764Z,54.00
2023-02-12T22:37:46.345Z,56.40
2023-02-12T22:40:53.065Z,54.70
2023-02-12T22:43:55.202Z,54.30
2023-02-12T22:46:56.882Z,54.10
2023-02-12T22:50:00.003Z,52.60
2023-02-12T22:53:01.570Z,52.40
2023-02-12T22:56:04.995Z,55.10
2023-02-12T22:59:07.088Z,54.90
2023-02-12T23:02:08.918Z,57.60
2023-02-12T23:05:10.645Z,55.50
2023-02-12T23:08:12.424Z,53.20
2023-02-12T23:14:16.341Z,52.00
2023-02-12T23:17:17.908Z,49.30
2023-02-12T23:20:19.680Z,49.10
2023-02-12T23:26:23.412Z,49.30
2023-02-12T23:29:24.938Z,48.60
2023-02-12T23:32:26.535Z,46.40
2023-02-12T23:35:28.656Z,50.50
2023-02-12T23:38:30.321Z,48.60
2023-02-12T23:41:31.987Z,49.80
2023-02-12T23:44:33.771Z,48.70
2023-02-12T23:50:37.002Z,49.00
2023-02-12T23:53:38.764Z,46.60
2023-02-12T23:59:41.837Z,46.10
